Time;durP1;ratioP1;P1;durP2;ratioP2;P2;SDS_P1;SDS_P2;PMS_P1;PMS_P2;Temp;Humidity;BMP_temperature;BMP_pressure;BME280_temperature;BME280_humidity;BME280_pressure;Samples;Min_cycle;Max_cycle;Signal;HPM_P1;HPM_P2
2021/08/17 00:00:18;;;;;;;;;;;;;;;22.41;63.14;96465.31;224895;257;99413;-53
2021/08/17 00:01:19;;;;;;;;;;;;;;;22.41;63.06;96462.55;222578;260;98907;-48
2021/08/17 00:02:21;;;;;;;;;;;;;;;22.38;63.06;96472.92;223377;259;99523;-49
2021/08/17 00:03:23;;;;;;;;;;;;;;;22.39;63.06;96468.20;224425;259;98932;-51
2021/08/17 00:04:24;;;;;;;;;;;;;;;22.38;63.04;96474.88;224015;259;98103;-50
2021/08/17 00:05:26;;;;;;;;;;;;;;;22.33;63.05;96472.36;223881;258;192326;-49
2021/08/17 00:06:27;;;;;;;;;;;;;;;22.33;63.09;96470.43;222552;261;97167;-49
2021/08/17 00:07:28;;;;;;;;;;;;;;;22.32;63.11;96479.84;224840;258;99425;-50
2021/08/17 00:08:30;;;;;;;;;;;;;;;22.32;63.12;96475.70;222435;261;98913;-49
2021/08/17 00:09:31;;;;;;;;;;;;;;;22.31;63.03;96469.16;223500;259;97600;-46
2021/08/17 00:10:32;;;;;;;;;;;;;;;22.31;63.09;96471.34;222798;260;97722;-47
2021/08/17 00:11:34;;;;;;;;;;;;;;;22.31;63.05;96469.95;223370;260;97979;-50
2021/08/17 00:12:35;;;;;;;;;;;;;;;22.32;62.97;96475.70;222849;260;98094;-49
2021/08/17 00:13:36;;;;;;;;;;;;;;;22.31;63.05;96482.38;224856;258;98971;-47
2021/08/17 00:14:38;;;;;;;;;;;;;;;22.33;62.98;96480.09;222970;260;98957;-51
2021/08/17 00:15:39;;;;;;;;;;;;;;;22.31;62.95;96483.76;223708;260;98898;-49
2021/08/17 00:16:40;;;;;;;;;;;;;;;22.33;62.91;96478.71;223432;260;98014;-50
2021/08/17 00:17:42;;;;;;;;;;;;;;;22.33;62.90;96481.47;222525;260;97999;-50
2021/08/17 00:18:43;;;;;;;;;;;;;;;22.34;62.94;96473.99;224663;258;98042;-48
2021/08/17 00:19:46;;;;;;;;;;;;;;;22.31;62.96;96468.58;222917;260;98973;-47
2021/08/17 00:20:47;;;;;;;;;;;;;;;22.31;63.02;96469.95;222829;260;97935;-53
2021/08/17 00:21:48;;;;;;;;;;;;;;;22.32;62.95;96477.08;224750;257;97956;-53
2021/08/17 00:22:50;;;;;;;;;;;;;;;22.33;62.92;96472.36;221734;261;97873;-51
2021/08/17 00:23:51;;;;;;;;;;;;;;;22.34;62.86;96471.23;224103;257;97005;-49
2021/08/17 00:24:52;;;;;;;;;;;;;;;22.32;62.89;96464.66;221438;260;172863;-48
2021/08/17 00:25:54;;;;;;;;;;;;;;;22.33;62.91;96463.53;221859;261;195574;-53
2021/08/17 00:26:55;;;;;;;;;;;;;;;22.33;62.77;96467.67;221877;261;193165;-51
2021/08/17 00:27:56;;;;;;;;;;;;;;;22.31;62.79;96465.02;221427;261;98936;-54
2021/08/17 00:28:58;;;;;;;;;;;;;;;22.30;62.86;96469.73;221798;260;97374;-50
2021/08/17 00:29:59;;;;;;;;;;;;;;;22.31;62.92;96463.05;224896;258;97959;-54
2021/08/17 00:31:00;;;;;;;;;;;;;;;22.28;62.91;96470.66;222254;261;97059;-47
2021/08/17 00:32:02;;;;;;;;;;;;;;;22.28;62.90;96467.11;223654;259;98763;-52
2021/08/17 00:33:03;;;;;;;;;;;;;;;22.30;62.87;96462.83;224984;258;99020;-50
2021/08/17 00:34:05;;;;;;;;;;;;;;;22.31;62.85;96467.20;224863;257;193826;-50
2021/08/17 00:35:06;;;;;;;;;;;;;;;22.31;62.90;96460.30;222263;260;100351;-48
2021/08/17 00:36:07;;;;;;;;;;;;;;;22.31;62.86;96463.05;223216;259;98962;-52
2021/08/17 00:37:09;;;;;;;;;;;;;;;22.30;62.82;96455.92;221749;260;98960;-52
2021/08/17 00:38:10;;;;;;;;;;;;;;;22.29;62.85;96452.95;223240;260;98981;-48
2021/08/17 00:39:11;;;;;;;;;;;;;;;22.30;62.81;96446.84;224703;258;98927;-47
2021/08/17 00:40:13;;;;;;;;;;;;;;;22.29;62.85;96450.19;224049;258;98973;-53
2021/08/17 00:41:14;;;;;;;;;;;;;;;22.29;62.81;96454.91;224250;257;98900;-51
2021/08/17 00:42:15;;;;;;;;;;;;;;;22.29;62.85;96463.19;223183;260;97984;-55
2021/08/17 00:43:17;;;;;;;;;;;;;;;22.28;62.79;96463.77;221753;260;98988;-54
2021/08/17 00:44:18;;;;;;;;;;;;;;;22.29;62.79;96461.23;223977;258;98980;-50
2021/08/17 00:45:19;;;;;;;;;;;;;;;22.31;62.75;96463.63;224800;257;97975;-51
2021/08/17 00:46:21;;;;;;;;;;;;;;;22.31;62.83;96469.16;222149;260;99273;-50
2021/08/17 00:47:22;;;;;;;;;;;;;;;22.33;62.80;96468.22;224845;257;97969;-50
2021/08/17 00:48:23;;;;;;;;;;;;;;;22.33;62.72;96469.05;223070;260;191974;-47
2021/08/17 00:49:25;;;;;;;;;;;;;;;22.33;62.67;96466.29;225959;257;99412;-54
2021/08/17 00:50:26;;;;;;;;;;;;;;;22.31;62.75;96466.39;223224;260;98949;-54
2021/08/17 00:51:27;;;;;;;;;;;;;;;22.30;62.70;96479.39;224275;258;97984;-48
2021/08/17 00:52:29;;;;;;;;;;;;;;;22.31;62.67;96483.76;223697;259;98004;-52
2021/08/17 00:53:30;;;;;;;;;;;;;;;22.28;62.67;96473.42;225333;257;97987;-52
2021/08/17 00:54:31;;;;;;;;;;;;;;;22.29;62.71;96481.13;222958;260;98964;-54
2021/08/17 00:55:33;;;;;;;;;;;;;;;22.26;62.65;96472.98;222929;260;98937;-48
2021/08/17 00:56:34;;;;;;;;;;;;;;;22.24;62.68;96478.05;225871;257;98899;-52
2021/08/17 00:57:35;;;;;;;;;;;;;;;22.28;62.67;96461.58;223216;260;98011;-52
2021/08/17 00:58:37;;;;;;;;;;;;;;;22.25;62.65;96472.76;224923;258;98004;-47
2021/08/17 00:59:38;;;;;;;;;;;;;;;22.23;62.71;96466.21;221999;261;97616;-50
2021/08/17 01:00:39;;;;;;;;;;;;;;;22.28;62.62;96456.86;222526;261;97076;-54
2021/08/17 01:01:41;;;;;;;;;;;;;;;22.32;62.53;96462.47;223091;260;100334;-50
2021/08/17 01:02:42;;;;;;;;;;;;;;;22.29;62.51;96461.23;223411;260;98943;-51
2021/08/17 01:03:43;;;;;;;;;;;;;;;22.24;62.62;96457.35;221891;260;98936;-51
2021/08/17 01:04:45;;;;;;;;;;;;;;;22.28;62.53;96455.48;222850;259;190235;-48
2021/08/17 01:05:46;;;;;;;;;;;;;;;22.28;62.52;96447.20;223119;259;277370;-47
2021/08/17 01:06:47;;;;;;;;;;;;;;;22.31;62.47;96445.11;225041;257;195678;-50
2021/08/17 01:07:49;;;;;;;;;;;;;;;22.28;62.61;96446.40;222861;260;194285;-49
2021/08/17 01:08:50;;;;;;;;;;;;;;;22.28;62.56;96441.68;224745;257;98947;-47
2021/08/17 01:09:51;;;;;;;;;;;;;;;22.30;62.54;96446.27;223005;260;99005;-52
2021/08/17 01:10:53;;;;;;;;;;;;;;;22.30;62.54;96450.41;225881;257;98914;-49
2021/08/17 01:11:54;;;;;;;;;;;;;;;22.29;62.53;96450.19;223216;260;98953;-51
2021/08/17 01:12:56;;;;;;;;;;;;;;;22.23;62.62;96446.89;223426;260;98956;-47
2021/08/17 01:13:57;;;;;;;;;;;;;;;22.23;62.68;96451.61;225256;257;98931;-49
2021/08/17 01:14:58;;;;;;;;;;;;;;;22.20;62.67;96449.53;222909;260;100227;-53
2021/08/17 01:16:00;;;;;;;;;;;;;;;22.19;62.69;96447.92;224452;257;98936;-49
2021/08/17 01:17:01;;;;;;;;;;;;;;;22.19;62.70;96459.77;222404;261;100410;-50
2021/08/17 01:18:02;;;;;;;;;;;;;;;22.21;62.60;96458.03;225101;258;98985;-48
2021/08/17 01:19:04;;;;;;;;;;;;;;;22.24;62.54;96467.02;224822;258;98958;-49
2021/08/17 01:20:05;;;;;;;;;;;;;;;22.24;62.45;96479.44;225156;258;98088;-50
2021/08/17 01:21:08;;;;;;;;;;;;;;;22.21;62.53;96475.98;223097;260;97353;-55
2021/08/17 01:22:09;;;;;;;;;;;;;;;22.23;62.52;96484.73;222558;260;193921;-46
2021/08/17 01:23:11;;;;;;;;;;;;;;;22.29;62.42;96475.03;225106;257;98978;-46
2021/08/17 01:24:12;;;;;;;;;;;;;;;22.28;62.37;96462.38;222827;260;189786;-49
2021/08/17 01:25:13;;;;;;;;;;;;;;;22.26;62.38;96461.94;222873;260;275596;-47
2021/08/17 01:26:15;;;;;;;;;;;;;;;22.23;62.40;96457.13;225302;257;194648;-50
2021/08/17 01:27:16;;;;;;;;;;;;;;;22.22;62.40;96452.73;222977;260;192544;-50
2021/08/17 01:28:18;;;;;;;;;;;;;;;22.20;62.32;96460.57;225347;257;98967;-48
2021/08/17 01:29:21;;;;;;;;;;;;;;;22.22;62.33;96457.70;222238;261;97326;-49
2021/08/17 01:30:22;;;;;;;;;;;;;;;22.23;62.31;96457.13;225161;257;98953;-48
2021/08/17 01:31:24;;;;;;;;;;;;;;;22.24;62.25;96455.97;223068;260;98949;-48
2021/08/17 01:32:25;;;;;;;;;;;;;;;22.18;62.36;96460.92;222667;260;276494;-56
2021/08/17 01:33:27;;;;;;;;;;;;;;;22.18;62.38;96452.64;225389;257;194928;-50
2021/08/17 01:34:28;;;;;;;;;;;;;;;22.16;62.38;96463.81;222907;260;195228;-48
2021/08/17 01:35:30;;;;;;;;;;;;;;;22.18;62.30;96458.74;225664;257;98952;-48
2021/08/17 01:36:31;;;;;;;;;;;;;;;22.15;62.32;96460.83;223065;260;98961;-49
2021/08/17 01:37:32;;;;;;;;;;;;;;;22.18;62.29;96453.22;223377;260;98937;-49
2021/08/17 01:38:34;;;;;;;;;;;;;;;22.14;62.28;96460.61;225709;257;97981;-48
2021/08/17 01:39:35;;;;;;;;;;;;;;;22.11;62.36;96460.71;223478;260;97938;-47
2021/08/17 01:40:37;;;;;;;;;;;;;;;22.11;62.34;96455.77;225427;257;98001;-50
2021/08/17 01:41:38;;;;;;;;;;;;;;;22.12;62.35;96469.83;223011;260;192517;-47
2021/08/17 01:42:39;;;;;;;;;;;;;;;22.13;62.27;96465.91;223375;260;98953;-47
2021/08/17 01:43:41;;;;;;;;;;;;;;;22.17;62.24;96479.22;225724;257;98943;-49
2021/08/17 01:44:42;;;;;;;;;;;;;;;22.16;62.18;96479.00;223494;260;98935;-47
2021/08/17 01:45:43;;;;;;;;;;;;;;;22.14;62.26;96483.48;225659;257;97605;-46
2021/08/17 01:46:44;;;;;;;;;;;;;;;22.16;62.16;96481.76;223460;260;98004;-48
2021/08/17 01:47:46;;;;;;;;;;;;;;;22.12;62.18;96473.97;225442;257;97532;-49
2021/08/17 01:48:47;;;;;;;;;;;;;;;22.19;62.18;96488.75;222950;260;97044;-48
2021/08/17 01:49:48;;;;;;;;;;;;;;;22.20;62.09;96490.94;223424;260;98986;-50
2021/08/17 01:50:50;;;;;;;;;;;;;;;22.23;62.01;96487.49;225471;257;190119;-48
2021/08/17 01:51:51;;;;;;;;;;;;;;;22.19;62.04;96487.95;223022;260;277547;-48
2021/08/17 01:52:53;;;;;;;;;;;;;;;22.17;62.07;96486.13;225487;257;197009;-47
2021/08/17 01:53:54;;;;;;;;;;;;;;;22.14;62.08;96488.21;223025;260;194315;-48
2021/08/17 01:54:55;;;;;;;;;;;;;;;22.13;62.09;96483.27;225295;257;97974;-49
2021/08/17 01:55:57;;;;;;;;;;;;;;;22.15;62.10;96478.20;222361;261;98969;-47
2021/08/17 01:56:58;;;;;;;;;;;;;;;22.17;62.04;96487.50;223299;260;99556;-49
2021/08/17 01:57:59;;;;;;;;;;;;;;;22.17;62.09;96481.41;223312;260;98948;-46
2021/08/17 01:59:01;;;;;;;;;;;;;;;22.13;62.04;96493.50;223562;260;98968;-46
2021/08/17 02:00:02;;;;;;;;;;;;;;;22.15;61.97;96485.67;223485;260;98953;-48
2021/08/17 02:01:03;;;;;;;;;;;;;;;22.12;62.01;96484.42;223409;260;98909;-47
2021/08/17 02:02:08;;;;;;;;;;;;;;;22.12;62.01;96483.62;223436;260;98028;-50
2021/08/17 02:03:08;;;;;;;;;;;;;;;22.14;62.04;96484.07;222755;260;67038;-47
2021/08/17 02:04:09;;;;;;;;;;;;;;;22.14;62.04;96493.73;224791;257;98865;-48
2021/08/17 02:05:10;;;;;;;;;;;;;;;22.13;61.99;96494.89;222692;260;98950;-51
2021/08/17 02:06:12;;;;;;;;;;;;;;;22.13;62.07;96493.50;223259;259;277510;-48
2021/08/17 02:07:13;;;;;;;;;;;;;;;22.14;61.94;96492.35;223285;260;194512;-49
2021/08/17 02:08:14;;;;;;;;;;;;;;;22.11;62.02;96499.35;225320;257;193974;-48
2021/08/17 02:09:16;;;;;;;;;;;;;;;22.12;61.92;96489.95;223280;260;99008;-49
2021/08/17 02:10:17;;;;;;;;;;;;;;;22.11;61.95;96486.13;222591;260;98041;-48
2021/08/17 02:11:18;;;;;;;;;;;;;;;22.10;61.93;96484.52;222685;260;99494;-47
2021/08/17 02:12:20;;;;;;;;;;;;;;;22.11;61.91;96491.64;222422;261;98912;-48
2021/08/17 02:13:21;;;;;;;;;;;;;;;22.12;61.81;96492.70;224224;257;99324;-49
2021/08/17 02:14:22;;;;;;;;;;;;;;;22.11;61.73;96491.07;223109;260;98950;-47
2021/08/17 02:15:24;;;;;;;;;;;;;;;22.12;61.74;96489.14;225662;257;98958;-48
2021/08/17 02:16:25;;;;;;;;;;;;;;;22.10;61.86;96496.94;223512;260;98840;-50
2021/08/17 02:17:26;;;;;;;;;;;;;;;22.06;61.93;96485.81;225686;257;97107;-48
2021/08/17 02:18:28;;;;;;;;;;;;;;;22.09;61.79;96496.14;223386;260;98862;-47
2021/08/17 02:19:29;;;;;;;;;;;;;;;22.06;61.87;96489.12;223478;259;98970;-50
2021/08/17 02:20:30;;;;;;;;;;;;;;;22.10;61.85;96494.19;223183;260;98961;-47
2021/08/17 02:21:32;;;;;;;;;;;;;;;22.09;61.79;96495.34;224878;257;98909;-47
2021/08/17 02:22:33;;;;;;;;;;;;;;;22.14;61.72;96496.49;224629;257;98944;-50
2021/08/17 02:23:35;;;;;;;;;;;;;;;22.12;61.66;96488.56;225078;257;98954;-52
2021/08/17 02:24:37;;;;;;;;;;;;;;;22.13;61.63;96486.03;224680;257;99338;-48
2021/08/17 02:25:39;;;;;;;;;;;;;;;22.14;61.66;96493.16;224871;257;97144;-47
2021/08/17 02:26:40;;;;;;;;;;;;;;;22.11;61.66;96489.69;222900;260;99062;-51
2021/08/17 02:27:41;;;;;;;;;;;;;;;22.08;61.69;96489.59;223732;259;276224;-46
2021/08/17 02:28:43;;;;;;;;;;;;;;;22.07;61.67;96496.27;224036;259;194921;-50
2021/08/17 02:29:44;;;;;;;;;;;;;;;22.06;61.68;96498.77;223930;259;195734;-46
2021/08/17 02:30:46;;;;;;;;;;;;;;;22.01;61.74;96491.56;225452;257;98935;-45
2021/08/17 02:31:47;;;;;;;;;;;;;;;22.01;61.80;96496.24;222679;260;189610;-50
2021/08/17 02:32:48;;;;;;;;;;;;;;;22.05;61.77;96497.17;221661;261;275975;-47
2021/08/17 02:33:50;;;;;;;;;;;;;;;22.08;61.61;96493.16;223051;259;194721;-54
2021/08/17 02:34:51;;;;;;;;;;;;;;;22.04;61.63;96499.70;222837;260;193479;-48
2021/08/17 02:35:52;;;;;;;;;;;;;;;22.00;61.66;96493.26;225607;257;98956;-46
2021/08/17 02:36:54;;;;;;;;;;;;;;;22.04;61.73;96490.05;223252;260;98940;-47
2021/08/17 02:37:55;;;;;;;;;;;;;;;22.13;61.84;96492.93;223456;260;98074;-54
2021/08/17 02:38:56;;;;;;;;;;;;;;;22.11;61.59;96505.45;223449;260;97989;-53
2021/08/17 02:39:58;;;;;;;;;;;;;;;22.10;61.54;96487.28;223647;260;98004;-51
2021/08/17 02:40:59;;;;;;;;;;;;;;;22.10;61.51;96492.80;223376;260;98944;-51
2021/08/17 02:42:00;;;;;;;;;;;;;;;22.08;61.54;96489.59;225257;257;194027;-49
2021/08/17 02:43:02;;;;;;;;;;;;;;;22.04;61.59;96491.43;222308;260;99009;-54
2021/08/17 02:44:03;;;;;;;;;;;;;;;22.08;61.48;96484.88;224613;257;99005;-50
2021/08/17 02:45:04;;;;;;;;;;;;;;;22.09;61.57;96489.24;223467;260;98942;-52
2021/08/17 02:46:06;;;;;;;;;;;;;;;22.10;61.51;96483.14;224566;257;98959;-49
2021/08/17 02:47:07;;;;;;;;;;;;;;;22.10;61.45;96485.91;222398;260;98958;-54
2021/08/17 02:48:09;;;;;;;;;;;;;;;22.10;61.49;96481.77;223189;260;97266;-51
2021/08/17 02:49:10;;;;;;;;;;;;;;;22.08;61.46;96483.50;224613;257;193572;-46
2021/08/17 02:50:12;;;;;;;;;;;;;;;22.07;61.51;96477.75;222251;260;98933;-49
2021/08/17 02:51:15;;;;;;;;;;;;;;;22.08;61.45;96481.31;222933;259;98932;-48
2021/08/17 02:52:16;;;;;;;;;;;;;;;22.06;61.50;96476.16;221114;262;100429;-50
2021/08/17 02:53:17;;;;;;;;;;;;;;;22.04;61.47;96476.25;224365;257;98952;-51
2021/08/17 02:54:19;;;;;;;;;;;;;;;22.05;61.44;96479.23;224311;257;277354;-50
2021/08/17 02:55:20;;;;;;;;;;;;;;;22.10;61.38;96481.19;222343;260;196538;-52
2021/08/17 02:56:21;;;;;;;;;;;;;;;22.08;61.45;96489.59;224911;257;192983;-51
2021/08/17 02:57:23;;;;;;;;;;;;;;;22.03;61.53;96471.89;223411;260;97987;-49
2021/08/17 02:58:25;;;;;;;;;;;;;;;22.07;61.45;96481.89;225358;257;98011;-50
2021/08/17 02:59:26;;;;;;;;;;;;;;;22.06;61.42;96476.70;222591;261;97579;-54
2021/08/17 03:00:27;;;;;;;;;;;;;;;22.07;61.45;96482.47;225305;257;98021;-52
2021/08/17 03:01:29;;;;;;;;;;;;;;;22.03;61.41;96477.41;223469;260;97088;-48
2021/08/17 03:02:30;;;;;;;;;;;;;;;22.07;61.44;96482.47;225428;257;99023;-48
2021/08/17 03:03:31;;;;;;;;;;;;;;;22.07;61.40;96481.89;222920;260;193518;-47
2021/08/17 03:04:33;;;;;;;;;;;;;;;22.09;61.42;96487.86;223206;260;98953;-47
2021/08/17 03:05:34;;;;;;;;;;;;;;;22.06;61.43;96486.36;223348;259;98081;-49
2021/08/17 03:06:35;;;;;;;;;;;;;;;22.08;61.44;96490.39;223837;260;98014;-48
2021/08/17 03:07:37;;;;;;;;;;;;;;;22.11;61.40;96491.07;223640;259;98037;-47
2021/08/17 03:08:38;;;;;;;;;;;;;;;22.07;61.45;96486.61;223929;259;97182;-49
2021/08/17 03:09:40;;;;;;;;;;;;;;;22.02;61.54;96478.56;223706;259;98937;-47
2021/08/17 03:10:41;;;;;;;;;;;;;;;22.08;61.44;96482.12;223270;259;195239;-49
2021/08/17 03:11:43;;;;;;;;;;;;;;;22.08;61.49;96482.70;225029;258;98777;-50
2021/08/17 03:12:44;;;;;;;;;;;;;;;22.07;61.42;96479.71;223236;260;98842;-53
2021/08/17 03:13:45;;;;;;;;;;;;;;;22.08;61.46;96479.94;222751;260;98942;-51
2021/08/17 03:14:47;;;;;;;;;;;;;;;22.06;61.46;96476.70;224715;258;99439;-49
2021/08/17 03:15:48;;;;;;;;;;;;;;;22.03;61.47;96477.41;223258;260;98837;-50
2021/08/17 03:16:49;;;;;;;;;;;;;;;22.07;61.50;96475.57;223242;260;98937;-49
2021/08/17 03:17:51;;;;;;;;;;;;;;;22.05;61.35;96477.28;221976;260;98968;-50
2021/08/17 03:18:52;;;;;;;;;;;;;;;22.02;61.42;96473.05;224820;258;98075;-47
2021/08/17 03:19:53;;;;;;;;;;;;;;;22.06;61.47;96480.84;224559;257;98752;-54
2021/08/17 03:20:57;;;;;;;;;;;;;;;22.09;61.37;96484.30;223270;260;99022;-51
2021/08/17 03:21:58;;;;;;;;;;;;;;;22.06;61.28;96482.22;223075;260;66852;-50
2021/08/17 03:22:59;;;;;;;;;;;;;;;22.04;61.35;96476.25;223863;258;277346;-52
2021/08/17 03:24:00;;;;;;;;;;;;;;;22.01;61.33;96481.06;221215;261;195457;-49
2021/08/17 03:25:02;;;;;;;;;;;;;;;22.06;61.31;96479.45;222430;259;195281;-54
2021/08/17 03:26:03;;;;;;;;;;;;;;;22.01;61.29;96470.86;222712;260;98835;-50
2021/08/17 03:27:04;;;;;;;;;;;;;;;22.00;61.43;96476.70;224448;257;98921;-50
2021/08/17 03:28:06;;;;;;;;;;;;;;;21.99;61.37;96476.48;224995;258;98908;-51
2021/08/17 03:29:07;;;;;;;;;;;;;;;21.99;61.37;96479.23;221443;261;98958;-50
2021/08/17 03:30:08;;;;;;;;;;;;;;;22.01;61.34;96479.14;221330;262;99409;-51
2021/08/17 03:31:10;;;;;;;;;;;;;;;22.02;61.26;96477.98;223794;259;98812;-53
2021/08/17 03:32:11;;;;;;;;;;;;;;;22.06;61.14;96477.53;225081;257;99332;-47
2021/08/17 03:33:12;;;;;;;;;;;;;;;22.03;61.20;96477.41;222570;261;98933;-48
2021/08/17 03:34:14;;;;;;;;;;;;;;;22.02;61.29;96471.09;224793;257;98911;-53
2021/08/17 03:35:15;;;;;;;;;;;;;;;22.00;61.24;96475.32;223572;260;98951;-53
2021/08/17 03:36:16;;;;;;;;;;;;;;;22.05;61.19;96473.72;225398;257;98924;-50
2021/08/17 03:37:18;;;;;;;;;;;;;;;22.01;61.19;96469.48;223295;260;98905;-49
2021/08/17 03:38:19;;;;;;;;;;;;;;;22.00;61.18;96478.89;225657;257;98955;-51
2021/08/17 03:39:20;;;;;;;;;;;;;;;21.96;61.34;96472.47;223099;260;98933;-50
2021/08/17 03:40:22;;;;;;;;;;;;;;;21.95;61.30;96477.19;223721;260;98041;-46
2021/08/17 03:41:23;;;;;;;;;;;;;;;21.97;61.31;96474.07;223606;259;98931;-48
2021/08/17 03:42:29;;;;;;;;;;;;;;;21.97;61.26;96487.87;223504;260;98927;-49
2021/08/17 03:43:27;;;;;;;;;;;;;;;21.98;61.26;96479.02;224218;259;68766;-47
2021/08/17 03:44:29;;;;;;;;;;;;;;;22.00;61.21;96483.02;223643;259;278995;-50
2021/08/17 03:45:30;;;;;;;;;;;;;;;22.01;61.18;96483.28;223617;259;194965;-48
2021/08/17 03:46:31;;;;;;;;;;;;;;;22.00;61.19;96483.60;224473;257;193229;-53
2021/08/17 03:47:33;;;;;;;;;;;;;;;21.98;61.24;96481.20;223495;260;98946;-47
2021/08/17 03:48:34;;;;;;;;;;;;;;;21.97;61.25;96478.21;223727;259;97942;-48
2021/08/17 03:49:36;;;;;;;;;;;;;;;22.00;61.17;96484.98;225705;257;97065;-49
2021/08/17 03:50:37;;;;;;;;;;;;;;;22.01;61.13;96482.45;223035;260;98971;-52
2021/08/17 03:51:38;;;;;;;;;;;;;;;22.02;61.15;96482.70;223401;260;98968;-48
2021/08/17 03:52:40;;;;;;;;;;;;;;;22.03;61.10;96491.20;225760;257;98935;-52
2021/08/17 03:53:41;;;;;;;;;;;;;;;22.05;61.13;96484.17;223084;260;195498;-47
2021/08/17 03:54:42;;;;;;;;;;;;;;;22.03;61.17;96484.30;225744;257;97981;-50
2021/08/17 03:55:44;;;;;;;;;;;;;;;22.01;61.25;96493.48;223174;260;189357;-49
2021/08/17 03:56:45;;;;;;;;;;;;;;;21.98;61.27;96490.05;225272;257;277178;-55
2021/08/17 03:57:46;;;;;;;;;;;;;;;22.00;61.27;96484.98;222999;260;193665;-49
2021/08/17 03:58:48;;;;;;;;;;;;;;;22.02;61.20;96493.16;223077;260;193586;-50
2021/08/17 03:59:49;;;;;;;;;;;;;;;;;;225674;257;98976;-50
2021/08/17 04:00:50;;;;;;;;;;;;;;;22.04;61.17;96504.65;223229;260;98952;-50
2021/08/17 04:01:51;;;;;;;;;;;;;;;22.02;61.15;96506.16;224727;258;98898;-51
2021/08/17 04:02:53;;;;;;;;;;;;;;;22.03;61.15;96499.48;225594;257;98943;-50
2021/08/17 04:03:54;;;;;;;;;;;;;;;22.00;61.21;96500.16;223512;260;98957;-52
2021/08/17 04:04:55;;;;;;;;;;;;;;;21.99;61.25;96509.02;225351;257;98781;-50
2021/08/17 04:05:57;;;;;;;;;;;;;;;21.99;61.22;96504.07;223314;260;98937;-50
2021/08/17 04:06:58;;;;;;;;;;;;;;;22.00;61.20;96502.92;225217;257;99008;-49
2021/08/17 04:07:59;;;;;;;;;;;;;;;21.99;61.23;96502.69;222956;260;189367;-47
2021/08/17 04:09:01;;;;;;;;;;;;;;;21.97;61.29;96503.63;223133;260;276282;-48
2021/08/17 04:10:02;;;;;;;;;;;;;;;22.00;61.24;96508.44;225513;257;194819;-50
2021/08/17 04:11:03;;;;;;;;;;;;;;;22.01;61.23;96511.42;222034;260;192149;-54
2021/08/17 04:12:05;;;;;;;;;;;;;;;21.99;61.22;96507.64;225059;257;97138;-48
2021/08/17 04:13:06;;;;;;;;;;;;;;;21.98;61.21;96514.31;223268;260;100325;-51
2021/08/17 04:14:07;;;;;;;;;;;;;;;21.99;61.22;96513.16;224887;257;99453;-55
2021/08/17 04:15:09;;;;;;;;;;;;;;;21.98;61.27;96519.02;222502;260;97917;-52
2021/08/17 04:16:10;;;;;;;;;;;;;;;21.98;61.22;96520.41;224884;257;97714;-48
2021/08/17 04:17:11;;;;;;;;;;;;;;;21.97;61.25;96521.56;223274;260;97985;-50
2021/08/17 04:18:13;;;;;;;;;;;;;;;21.95;61.23;96511.67;225387;257;98042;-48
2021/08/17 04:19:14;;;;;;;;;;;;;;;21.94;61.32;96522.48;223296;260;98993;-48
2021/08/17 04:20:18;;;;;;;;;;;;;;;21.97;61.25;96524.31;223039;260;98972;-50
2021/08/17 04:21:20;;;;;;;;;;;;;;;21.97;61.28;96525.70;224052;258;99446;-50
2021/08/17 04:22:21;;;;;;;;;;;;;;;21.95;61.31;96529.61;224622;257;190141;-47
2021/08/17 04:23:22;;;;;;;;;;;;;;;21.97;61.25;96533.40;222193;260;277912;-51
2021/08/17 04:24:24;;;;;;;;;;;;;;;21.98;61.20;96528.10;222147;260;195596;-51
2021/08/17 04:25:26;;;;;;;;;;;;;;;21.97;61.21;96525.13;222554;259;194040;-51
2021/08/17 04:26:27;;;;;;;;;;;;;;;21.97;61.20;96529.26;222901;259;98986;-49
2021/08/17 04:27:29;;;;;;;;;;;;;;;21.94;61.25;96532.14;222890;259;98946;-50
2021/08/17 04:28:32;;;;;;;;;;;;;;;21.95;61.27;96535.13;222798;260;99038;-49
2021/08/17 04:29:33;;;;;;;;;;;;;;;21.95;61.21;96535.13;222304;260;189702;-47
2021/08/17 04:30:34;;;;;;;;;;;;;;;21.93;61.21;96533.30;222428;260;276562;-50
2021/08/17 04:31:36;;;;;;;;;;;;;;;21.93;61.22;96519.50;222486;260;194939;-51
2021/08/17 04:32:37;;;;;;;;;;;;;;;21.94;61.22;96528.01;222548;260;193445;-55
2021/08/17 04:33:38;;;;;;;;;;;;;;;21.94;61.20;96528.58;222828;260;99408;-46
2021/08/17 04:34:40;;;;;;;;;;;;;;;21.93;61.23;96519.50;224482;258;98045;-50
2021/08/17 04:35:41;;;;;;;;;;;;;;;21.94;61.18;96533.53;222875;260;96991;-55
2021/08/17 04:36:42;;;;;;;;;;;;;;;21.94;61.18;96544.56;222853;260;98925;-52
2021/08/17 04:37:44;;;;;;;;;;;;;;;21.93;61.20;96546.30;222845;260;98953;-48
2021/08/17 04:38:45;;;;;;;;;;;;;;;21.91;61.19;96542.50;223189;260;98957;-50
2021/08/17 04:39:46;;;;;;;;;;;;;;;21.89;61.25;96540.64;224873;257;98930;-48
2021/08/17 04:40:48;;;;;;;;;;;;;;;21.93;61.15;96552.61;222244;261;98954;-53
2021/08/17 04:41:49;;;;;;;;;;;;;;;21.94;61.12;96547.32;224579;258;97964;-51
2021/08/17 04:42:50;;;;;;;;;;;;;;;21.92;61.11;96545.49;224821;258;99012;-50
2021/08/17 04:43:52;;;;;;;;;;;;;;;21.92;61.06;96552.39;222143;260;98961;-51
2021/08/17 04:44:53;;;;;;;;;;;;;;;21.90;61.10;96553.86;224970;257;98955;-49
2021/08/17 04:45:54;;;;;;;;;;;;;;;21.97;61.01;96558.81;222137;261;98923;-46
2021/08/17 04:46:56;;;;;;;;;;;;;;;21.90;61.08;96561.59;224808;258;98958;-47
2021/08/17 04:47:57;;;;;;;;;;;;;;;21.91;61.06;96563.20;222442;261;98953;-48
2021/08/17 04:48:58;;;;;;;;;;;;;;;21.95;60.98;96562.72;222769;260;99422;-54
2021/08/17 04:50:00;;;;;;;;;;;;;;;21.95;61.00;96575.72;223408;260;98913;-50
2021/08/17 04:51:01;;;;;;;;;;;;;;;21.95;61.08;96575.72;222224;260;98855;-54
2021/08/17 04:52:02;;;;;;;;;;;;;;;21.97;61.02;96576.17;224955;257;98851;-53
2021/08/17 04:53:04;;;;;;;;;;;;;;;21.93;61.03;96581.58;223055;260;98948;-51
2021/08/17 04:54:05;;;;;;;;;;;;;;;21.94;61.04;96571.35;222824;260;98952;-53
2021/08/17 04:55:07;;;;;;;;;;;;;;;21.90;60.97;96571.25;224897;257;98924;-50
2021/08/17 04:56:08;;;;;;;;;;;;;;;21.92;60.98;96575.04;221453;261;98907;-50
2021/08/17 04:57:09;;;;;;;;;;;;;;;21.92;60.97;96571.70;222406;260;98981;-52
2021/08/17 04:58:11;;;;;;;;;;;;;;;21.91;61.08;96574.81;224616;257;98931;-50
2021/08/17 04:59:12;;;;;;;;;;;;;;;21.99;61.01;96574.44;222534;260;98949;-50
2021/08/17 05:00:13;;;;;;;;;;;;;;;21.99;60.92;96573.86;224801;257;98931;-52
2021/08/17 05:05:56;;;;;;;;;;;;;;;22.15;61.18;96578.14;227529;255;71220;-56
2021/08/17 05:06:57;;;;;;;;;;;;;;;22.17;60.88;96577.20;224583;256;189594;-53
2021/08/17 05:07:59;;;;;;;;;;;;;;;22.12;60.91;96574.70;224368;257;277388;-58
2021/08/17 05:09:00;;;;;;;;;;;;;;;22.13;60.79;96579.06;222831;260;195513;-57
2021/08/17 05:10:01;;;;;;;;;;;;;;;22.11;60.80;96579.96;224058;259;194108;-54
2021/08/17 05:11:03;;;;;;;;;;;;;;;22.17;61.35;96586.87;222723;259;97966;-54
2021/08/17 05:12:04;;;;;;;;;;;;;;;22.10;60.77;96575.02;223455;260;98982;-56
2021/08/17 05:13:05;;;;;;;;;;;;;;;22.09;60.90;96583.66;222926;261;97889;-54
2021/08/17 05:14:07;;;;;;;;;;;;;;;22.01;60.99;96591.45;222754;261;99545;-55
2021/08/17 05:15:08;;;;;;;;;;;;;;;22.10;60.92;96588.02;222844;260;100484;-57
2021/08/17 05:16:11;;;;;;;;;;;;;;;22.12;60.86;96591.26;224065;259;98936;-51
2021/08/17 05:17:12;;;;;;;;;;;;;;;22.12;60.80;96598.16;222842;261;192108;-58
2021/08/17 05:18:13;;;;;;;;;;;;;;;22.14;60.76;96598.61;224279;259;99044;-55
2021/08/17 05:19:15;;;;;;;;;;;;;;;22.18;60.87;96602.27;223612;259;98865;-55
2021/08/17 05:20:16;;;;;;;;;;;;;;;22.19;60.68;96595.02;223166;260;97633;-59
2021/08/17 05:21:17;;;;;;;;;;;;;;;22.20;60.69;96606.86;223712;259;97912;-55
2021/08/17 05:22:19;;;;;;;;;;;;;;;22.22;60.66;96601.25;222954;260;98044;-59
2021/08/17 05:23:20;;;;;;;;;;;;;;;22.23;60.69;96605.61;222076;261;98970;-55